createdAt,value
2019-01-18T00:00:01.201Z,1004.20
2019-01-18T00:01:05.406Z,1004.23
2019-01-18T00:02:09.572Z,1004.27
2019-01-18T00:03:13.726Z,1004.31
2019-01-18T00:04:17.778Z,1004.31
2019-01-18T00:05:21.912Z,1004.36
2019-01-18T00:06:26.129Z,1004.38
2019-01-18T00:07:30.211Z,1004.44
2019-01-18T00:08:34.442Z,1004.43
2019-01-18T00:09:38.606Z,1004.45
2019-01-18T00:10:42.765Z,1004.48
2019-01-18T00:11:46.811Z,1004.51
2019-01-18T00:12:51.026Z,1004.51
2019-01-18T00:13:55.168Z,1004.53
2019-01-18T00:14:59.222Z,1004.56
2019-01-18T00:16:03.324Z,1004.62
2019-01-18T00:17:07.511Z,1004.63
2019-01-18T00:18:11.568Z,1004.60
2019-01-18T00:19:15.728Z,1004.61
2019-01-18T00:20:19.863Z,1004.65
2019-01-18T00:21:24.102Z,1004.68
2019-01-18T00:22:28.163Z,1004.66
2019-01-18T00:23:32.379Z,1004.73
2019-01-18T00:24:36.527Z,1004.70
2019-01-18T00:25:40.670Z,1004.76
2019-01-18T00:26:44.828Z,1004.78
2019-01-18T00:27:48.984Z,1004.83
2019-01-18T00:28:53.040Z,1004.83
2019-01-18T00:29:57.159Z,1004.84
2019-01-18T00:31:01.275Z,1004.87
2019-01-18T00:32:05.479Z,1004.84
2019-01-18T00:33:09.620Z,1004.92
2019-01-18T00:34:13.762Z,1004.91
2019-01-18T00:35:17.913Z,1004.92
2019-01-18T00:36:22.058Z,1004.95
2019-01-18T00:37:26.103Z,1004.96
2019-01-18T00:38:30.213Z,1004.96
2019-01-18T00:39:34.399Z,1004.95
2019-01-18T00:40:38.589Z,1004.96
2019-01-18T00:41:42.744Z,1004.97
2019-01-18T00:42:46.911Z,1005.01
2019-01-18T00:43:51.070Z,1005.03
2019-01-18T00:44:55.133Z,1005.08
2019-01-18T00:45:59.388Z,1005.11
2019-01-18T00:47:03.516Z,1005.11
2019-01-18T00:48:07.685Z,1005.18
2019-01-18T00:49:11.823Z,1005.18
2019-01-18T00:50:15.985Z,1005.23
2019-01-18T00:51:20.051Z,1005.21
2019-01-18T00:52:24.186Z,1005.27
2019-01-18T00:53:28.418Z,1005.26
2019-01-18T00:54:32.483Z,1005.32
2019-01-18T00:55:36.682Z,1005.36
2019-01-18T00:56:40.793Z,1005.39
2019-01-18T00:57:44.874Z,1005.42
2019-01-18T00:58:49.093Z,1005.45
2019-01-18T00:59:53.234Z,1005.50
2019-01-18T01:00:57.406Z,1005.51
2019-01-18T01:02:01.451Z,1005.58
2019-01-18T01:03:06.555Z,1005.58
2019-01-18T01:04:10.328Z,1005.56
2019-01-18T01:05:14.510Z,1005.57
2019-01-18T01:06:18.651Z,1005.60
2019-01-18T01:07:22.698Z,1005.64
2019-01-18T01:08:26.890Z,1005.66
2019-01-18T01:09:31.073Z,1005.68
2019-01-18T01:10:35.234Z,1005.67
2019-01-18T01:11:39.402Z,1005.70
2019-01-18T01:12:43.455Z,1005.77
2019-01-18T01:13:47.658Z,1005.76
2019-01-18T01:14:51.870Z,1005.82
2019-01-18T01:15:55.915Z,1005.82
2019-01-18T01:17:00.101Z,1005.87
2019-01-18T01:18:04.214Z,1005.87
2019-01-18T01:19:08.389Z,1005.91
2019-01-18T01:20:12.438Z,1005.93
2019-01-18T01:21:16.630Z,1005.96
2019-01-18T01:22:20.792Z,1005.97
2019-01-18T01:23:24.850Z,1005.97
2019-01-18T01:24:29.059Z,1006.00
2019-01-18T01:25:33.232Z,1006.03
2019-01-18T01:26:37.302Z,1006.03
2019-01-18T01:27:41.512Z,1006.01
2019-01-18T01:28:45.673Z,1006.07
2019-01-18T01:29:49.752Z,1006.07
2019-01-18T01:30:53.965Z,1006.14
2019-01-18T01:31:58.019Z,1006.17
2019-01-18T01:33:02.288Z,1006.17
2019-01-18T01:34:06.299Z,1006.18
2019-01-18T01:35:10.507Z,1006.21
2019-01-18T01:36:17.654Z,1006.27
2019-01-18T01:37:20.893Z,1006.33
2019-01-18T01:38:24.936Z,1006.35
2019-01-18T01:39:29.151Z,1006.38
2019-01-18T01:40:33.198Z,1006.42
2019-01-18T01:41:37.374Z,1006.42
2019-01-18T01:42:41.537Z,1006.47
2019-01-18T01:43:45.698Z,1006.50
2019-01-18T01:44:49.887Z,1006.56
2019-01-18T01:45:54.009Z,1006.64
2019-01-18T01:46:58.088Z,1006.66
2019-01-18T01:48:02.308Z,1006.69
2019-01-18T01:49:06.350Z,1006.75
2019-01-18T01:50:10.445Z,1006.78
2019-01-18T01:51:14.530Z,1006.83
2019-01-18T01:52:18.670Z,1006.84
2019-01-18T01:53:22.890Z,1006.88
2019-01-18T01:54:26.985Z,1006.87
2019-01-18T01:55:31.080Z,1006.95
2019-01-18T01:56:35.153Z,1006.96
2019-01-18T01:57:39.279Z,1006.97
2019-01-18T01:58:43.370Z,1007.01
2019-01-18T01:59:49.969Z,1007.05
2019-01-18T02:00:51.652Z,1007.04
2019-01-18T02:01:55.767Z,1007.10
2019-01-18T02:02:59.846Z,1007.12
2019-01-18T02:04:03.943Z,1007.15
2019-01-18T02:05:08.065Z,1007.18
2019-01-18T02:06:12.264Z,1007.22
2019-01-18T02:07:16.338Z,1007.24
2019-01-18T02:08:20.467Z,1007.30
2019-01-18T02:09:24.649Z,1007.34
2019-01-18T02:10:28.785Z,1007.37
2019-01-18T02:11:32.873Z,1007.39
2019-01-18T02:12:36.965Z,1007.44
2019-01-18T02:13:41.091Z,1007.42
2019-01-18T02:14:45.196Z,1007.44
2019-01-18T02:15:49.367Z,1007.46
2019-01-18T02:16:53.394Z,1007.48
2019-01-18T02:17:57.625Z,1007.50
2019-01-18T02:19:01.758Z,1007.51
2019-01-18T02:20:05.801Z,1007.52
2019-01-18T02:21:09.987Z,1007.54
2019-01-18T02:22:14.122Z,1007.56
2019-01-18T02:23:18.169Z,1007.58
2019-01-18T02:24:22.375Z,1007.62
2019-01-18T02:25:26.395Z,1007.66
2019-01-18T02:26:30.594Z,1007.71
2019-01-18T02:27:34.659Z,1007.74
2019-01-18T02:28:38.795Z,1007.72
2019-01-18T02:29:42.888Z,1007.74
2019-01-18T02:30:46.999Z,1007.81
2019-01-18T02:31:51.110Z,1007.87
2019-01-18T02:32:55.213Z,1007.88
2019-01-18T02:33:59.345Z,1007.90
2019-01-18T02:35:03.575Z,1007.92
2019-01-18T02:36:07.654Z,1007.91
2019-01-18T02:37:11.856Z,1007.96
2019-01-18T02:38:15.922Z,1007.99
2019-01-18T02:39:20.155Z,1007.96
2019-01-18T02:40:24.292Z,1007.98
2019-01-18T02:41:28.346Z,1008.00
2019-01-18T02:42:32.548Z,1007.98
2019-01-18T02:43:36.648Z,1008.03
2019-01-18T02:44:40.881Z,1008.05
2019-01-18T02:45:44.948Z,1008.07
2019-01-18T02:46:49.054Z,1008.06
2019-01-18T02:47:53.177Z,1008.11
2019-01-18T02:48:57.310Z,1008.09
2019-01-18T02:50:01.417Z,1008.11
2019-01-18T02:51:05.513Z,1008.11
2019-01-18T02:52:09.729Z,1008.20
2019-01-18T02:53:13.771Z,1008.19
2019-01-18T02:54:18.015Z,1008.19
2019-01-18T02:55:28.852Z,1008.22
2019-01-18T02:56:26.330Z,1008.30
2019-01-18T02:57:30.508Z,1008.29
2019-01-18T02:58:34.632Z,1008.28
2019-01-18T02:59:38.747Z,1008.30
2019-01-18T03:00:42.889Z,1008.29
2019-01-18T03:01:47.028Z,1008.31
2019-01-18T03:02:51.147Z,1008.32
2019-01-18T03:03:55.301Z,1008.31
2019-01-18T03:04:59.373Z,1008.36
2019-01-18T03:06:03.570Z,1008.41
2019-01-18T03:07:07.655Z,1008.46
2019-01-18T03:08:11.738Z,1008.46
2019-01-18T03:09:15.852Z,1008.51
2019-01-18T03:10:19.949Z,1008.55
2019-01-18T03:11:24.068Z,1008.55
2019-01-18T03:12:28.206Z,1008.58
2019-01-18T03:13:32.277Z,1008.58
2019-01-18T03:14:36.473Z,1008.63
2019-01-18T03:15:40.519Z,1008.66
2019-01-18T03:16:44.714Z,1008.68
2019-01-18T03:17:48.882Z,1008.70
2019-01-18T03:18:52.965Z,1008.75
2019-01-18T03:19:57.153Z,1008.81
2019-01-18T03:21:04.324Z,1008.81
2019-01-18T03:22:07.551Z,1008.85
2019-01-18T03:23:11.641Z,1008.89
2019-01-18T03:24:15.845Z,1008.90
2019-01-18T03:25:19.904Z,1008.92
2019-01-18T03:26:24.091Z,1008.96
2019-01-18T03:27:28.305Z,1009.00
2019-01-18T03:28:32.358Z,1009.04
2019-01-18T03:29:36.498Z,1009.08
2019-01-18T03:30:40.704Z,1009.10
2019-01-18T03:31:44.871Z,1009.09
2019-01-18T03:32:48.969Z,1009.12
2019-01-18T03:33:53.089Z,1009.13
2019-01-18T03:34:57.251Z,1009.17
2019-01-18T03:36:01.407Z,1009.18
2019-01-18T03:37:05.526Z,1009.23
2019-01-18T03:38:09.600Z,1009.24
2019-01-18T03:39:13.801Z,1009.27
2019-01-18T03:40:17.964Z,1009.24
2019-01-18T03:41:22.145Z,1009.27
2019-01-18T03:42:26.277Z,1009.30
2019-01-18T03:43:30.335Z,1009.33
2019-01-18T03:44:34.516Z,1009.36
2019-01-18T03:45:38.540Z,1009.34
2019-01-18T03:46:43.686Z,1009.38
2019-01-18T03:47:47.428Z,1009.40
2019-01-18T03:48:51.454Z,1009.40
2019-01-18T03:49:55.625Z,1009.41
2019-01-18T03:50:59.746Z,1009.41
2019-01-18T03:52:03.818Z,1009.44
2019-01-18T03:53:08.011Z,1009.47
2019-01-18T03:54:12.049Z,1009.47
2019-01-18T03:55:16.158Z,1009.52
2019-01-18T03:56:20.280Z,1009.57
2019-01-18T03:57:24.497Z,1009.58
2019-01-18T03:58:28.564Z,1009.60
2019-01-18T03:59:32.663Z,1009.64
2019-01-18T04:00:36.767Z,1009.66
2019-01-18T04:01:40.828Z,1009.66
2019-01-18T04:02:45.035Z,1009.67
2019-01-18T04:03:49.179Z,1009.67
2019-01-18T04:04:53.182Z,1009.69
2019-01-18T04:05:57.353Z,1009.68
2019-01-18T04:07:01.478Z,1009.68
2019-01-18T04:08:05.650Z,1009.71
2019-01-18T04:09:09.681Z,1009.73
2019-01-18T04:10:13.798Z,1009.74
2019-01-18T04:11:17.901Z,1009.75
2019-01-18T04:12:22.959Z,1009.77
2019-01-18T04:13:26.780Z,1009.79
2019-01-18T04:14:30.881Z,1009.82
2019-01-18T04:15:34.934Z,1009.83
2019-01-18T04:16:39.035Z,1009.85
2019-01-18T04:17:43.159Z,1009.84
2019-01-18T04:18:47.413Z,1009.86
2019-01-18T04:19:51.482Z,1009.85
2019-01-18T04:20:55.717Z,1009.85
2019-01-18T04:21:59.806Z,1009.86
2019-01-18T04:23:03.980Z,1009.88
2019-01-18T04:24:08.096Z,1009.92
2019-01-18T04:25:12.277Z,1009.96
2019-01-18T04:26:16.405Z,1009.95
2019-01-18T04:27:20.538Z,1010.00
2019-01-18T04:28:24.684Z,1010.02
2019-01-18T04:29:28.837Z,1010.09
2019-01-18T04:30:33.825Z,1010.12
2019-01-18T04:31:37.173Z,1010.14
2019-01-18T04:32:41.313Z,1010.14
2019-01-18T04:33:45.462Z,1010.15
2019-01-18T04:34:49.621Z,1010.16
2019-01-18T04:35:53.775Z,1010.17
2019-01-18T04:36:57.989Z,1010.19
2019-01-18T04:38:05.081Z,1010.18
2019-01-18T04:39:08.227Z,1010.17
2019-01-18T04:40:12.380Z,1010.20
2019-01-18T04:41:19.520Z,1010.21
2019-01-18T04:42:22.643Z,1010.25
2019-01-18T04:43:26.718Z,1010.28
2019-01-18T04:44:30.886Z,1010.32
2019-01-18T04:45:35.030Z,1010.34
2019-01-18T04:46:39.181Z,1010.39
2019-01-18T04:47:43.295Z,1010.38
2019-01-18T04:48:47.461Z,1010.38
2019-01-18T04:49:51.651Z,1010.40
2019-01-18T04:50:55.682Z,1010.40
2019-01-18T04:51:59.779Z,1010.41
2019-01-18T04:53:03.946Z,1010.43
2019-01-18T04:54:08.147Z,1010.44
2019-01-18T04:55:12.265Z,1010.42
2019-01-18T04:56:16.335Z,1010.45
2019-01-18T04:57:20.444Z,1010.44
2019-01-18T04:58:26.609Z,1010.50
2019-01-18T04:59:29.336Z,1010.53
2019-01-18T05:00:40.187Z,1010.54
2019-01-18T05:01:37.425Z,1010.54
2019-01-18T05:02:41.543Z,1010.56
2019-01-18T05:03:45.671Z,1010.54
2019-01-18T05:04:49.845Z,1010.59
2019-01-18T05:05:53.919Z,1010.61
2019-01-18T05:06:58.028Z,1010.63
2019-01-18T05:08:02.225Z,1010.66
2019-01-18T05:09:06.238Z,1010.68
2019-01-18T05:10:10.445Z,1010.69
2019-01-18T05:11:14.493Z,1010.69
2019-01-18T05:12:18.659Z,1010.70
2019-01-18T05:13:22.817Z,1010.74
2019-01-18T05:14:26.944Z,1010.74
2019-01-18T05:15:31.911Z,1010.76
2019-01-18T05:16:35.717Z,1010.77
2019-01-18T05:17:39.759Z,1010.78
2019-01-18T05:18:43.852Z,1010.82
2019-01-18T05:19:48.101Z,1010.86
2019-01-18T05:20:52.121Z,1010.87
2019-01-18T05:21:56.337Z,1010.89
2019-01-18T05:23:00.368Z,1010.89
2019-01-18T05:24:04.570Z,1010.89
2019-01-18T05:25:08.574Z,1010.93
2019-01-18T05:26:12.824Z,1010.95
2019-01-18T05:27:16.864Z,1011.00
2019-01-18T05:28:21.102Z,1011.04
2019-01-18T05:29:25.133Z,1011.04
2019-01-18T05:30:29.253Z,1011.05
2019-01-18T05:31:33.405Z,1011.07
2019-01-18T05:32:37.467Z,1011.08
2019-01-18T05:33:41.602Z,1011.10
2019-01-18T05:34:45.753Z,1011.13
2019-01-18T05:35:49.720Z,1011.15
2019-01-18T05:36:53.987Z,1011.18
2019-01-18T05:37:58.155Z,1011.21
2019-01-18T05:39:02.307Z,1011.21
2019-01-18T05:40:06.479Z,1011.22
2019-01-18T05:41:10.641Z,1011.23
2019-01-18T05:42:14.791Z,1011.26
2019-01-18T05:43:21.997Z,1011.29
2019-01-18T05:44:25.064Z,1011.31
2019-01-18T05:45:29.284Z,1011.35
2019-01-18T05:46:33.294Z,1011.39
2019-01-18T05:47:37.524Z,1011.39
2019-01-18T05:48:41.559Z,1011.41
2019-01-18T05:49:45.663Z,1011.41
2019-01-18T05:50:49.821Z,1011.43
2019-01-18T05:51:54.023Z,1011.44
2019-01-18T05:52:58.177Z,1011.46
2019-01-18T05:54:02.182Z,1011.46
2019-01-18T05:55:06.406Z,1011.47
2019-01-18T05:56:10.563Z,1011.50
2019-01-18T05:57:14.714Z,1011.54
2019-01-18T05:58:18.849Z,1011.58
2019-01-18T05:59:23.009Z,1011.60
2019-01-18T06:00:27.195Z,1011.62
2019-01-18T06:01:31.283Z,1011.65
2019-01-18T06:02:35.426Z,1011.67
2019-01-18T06:03:39.539Z,1011.68
2019-01-18T06:04:43.670Z,1011.70
2019-01-18T06:05:47.746Z,1011.73
2019-01-18T06:06:51.870Z,1011.75
2019-01-18T06:07:55.993Z,1011.79
2019-01-18T06:09:00.120Z,1011.82
2019-01-18T06:10:04.238Z,1011.82
2019-01-18T06:11:08.369Z,1011.84
2019-01-18T06:12:12.483Z,1011.86
2019-01-18T06:13:16.629Z,1011.86
2019-01-18T06:14:20.657Z,1011.88
2019-01-18T06:15:24.843Z,1011.90
2019-01-18T06:16:28.888Z,1011.92
2019-01-18T06:17:32.977Z,1011.91
2019-01-18T06:18:37.067Z,1011.92
2019-01-18T06:19:41.268Z,1011.95
2019-01-18T06:20:45.355Z,1011.95
2019-01-18T06:21:49.469Z,1011.99
2019-01-18T06:22:53.527Z,1012.00
2019-01-18T06:23:57.582Z,1012.01
2019-01-18T06:25:01.752Z,1012.04
2019-01-18T06:26:05.835Z,1012.04
2019-01-18T06:27:09.931Z,1012.06
2019-01-18T06:28:13.924Z,1012.07
2019-01-18T06:29:18.134Z,1012.11
2019-01-18T06:30:22.299Z,1012.12
2019-01-18T06:31:26.409Z,1012.12
2019-01-18T06:32:30.329Z,1012.14
2019-01-18T06:33:34.496Z,1012.18
2019-01-18T06:34:38.661Z,1012.16
2019-01-18T06:35:42.816Z,1012.20
2019-01-18T06:36:46.937Z,1012.20
2019-01-18T06:37:50.951Z,1012.20
2019-01-18T06:38:55.159Z,1012.21
2019-01-18T06:39:59.299Z,1012.24
2019-01-18T06:41:03.424Z,1012.28
2019-01-18T06:42:07.550Z,1012.27
2019-01-18T06:43:11.687Z,1012.28
2019-01-18T06:44:15.800Z,1012.29
2019-01-18T06:45:19.957Z,1012.33
2019-01-18T06:46:24.095Z,1012.35
2019-01-18T06:47:28.027Z,1012.36
2019-01-18T06:48:32.262Z,1012.39
2019-01-18T06:49:36.415Z,1012.41
2019-01-18T06:50:40.339Z,1012.40
2019-01-18T06:51:44.575Z,1012.40
2019-01-18T06:52:48.681Z,1012.41
2019-01-18T06:53:52.809Z,1012.44
2019-01-18T06:54:56.783Z,1012.44
2019-01-18T06:56:00.896Z,1012.46
2019-01-18T06:57:05.057Z,1012.46
2019-01-18T06:58:09.158Z,1012.46
2019-01-18T06:59:13.284Z,1012.48
2019-01-18T07:00:17.364Z,1012.47
2019-01-18T07:01:21.552Z,1012.47
2019-01-18T07:02:25.682Z,1012.50
2019-01-18T07:03:30.648Z,1012.53
2019-01-18T07:04:40.475Z,1012.53
2019-01-18T07:05:38.574Z,1012.53
2019-01-18T07:06:42.558Z,1012.56
2019-01-18T07:07:46.765Z,1012.60
2019-01-18T07:08:50.887Z,1012.63
2019-01-18T07:09:54.888Z,1012.63
2019-01-18T07:10:59.070Z,1012.64
2019-01-18T07:12:03.055Z,1012.66
2019-01-18T07:13:07.163Z,1012.68
2019-01-18T07:14:11.292Z,1012.66
2019-01-18T07:15:15.462Z,1012.67
2019-01-18T07:16:19.589Z,1012.71
2019-01-18T07:17:23.620Z,1012.73
2019-01-18T07:18:27.696Z,1012.75
2019-01-18T07:19:31.873Z,1012.76
2019-01-18T07:20:35.828Z,1012.78
2019-01-18T07:21:39.993Z,1012.80
2019-01-18T07:22:44.199Z,1012.78
2019-01-18T07:23:48.129Z,1012.79
2019-01-18T07:24:52.247Z,1012.81
2019-01-18T07:25:56.428Z,1012.83
2019-01-18T07:27:00.484Z,1012.85
2019-01-18T07:28:04.613Z,1012.88
2019-01-18T07:29:08.628Z,1012.90
2019-01-18T07:30:12.823Z,1012.90
2019-01-18T07:31:16.913Z,1012.93
2019-01-18T07:32:20.988Z,1012.95
2019-01-18T07:33:25.172Z,1012.95
2019-01-18T07:34:29.327Z,1012.96
2019-01-18T07:35:33.314Z,1012.99
2019-01-18T07:36:37.426Z,1012.99
2019-01-18T07:37:41.568Z,1013.01
2019-01-18T07:38:45.681Z,1013.02
2019-01-18T07:39:49.685Z,1013.03
2019-01-18T07:40:53.812Z,1013.03
2019-01-18T07:41:57.940Z,1013.05
2019-01-18T07:43:02.880Z,1013.04
2019-01-18T07:44:06.631Z,1013.10
2019-01-18T07:45:10.647Z,1013.12
2019-01-18T07:46:14.810Z,1013.14
2019-01-18T07:47:18.960Z,1013.15
2019-01-18T07:48:23.885Z,1013.15
2019-01-18T07:49:27.679Z,1013.20
2019-01-18T07:50:31.798Z,1013.21
2019-01-18T07:51:35.965Z,1013.25
2019-01-18T07:52:40.084Z,1013.26
2019-01-18T07:53:44.226Z,1013.30
2019-01-18T07:54:48.224Z,1013.31
2019-01-18T07:55:52.330Z,1013.28
2019-01-18T07:56:56.523Z,1013.27
2019-01-18T07:58:00.642Z,1013.28
2019-01-18T07:59:04.668Z,1013.31
2019-01-18T08:00:08.729Z,1013.33
2019-01-18T08:01:12.937Z,1013.35
2019-01-18T08:02:17.011Z,1013.38
2019-01-18T08:03:21.954Z,1013.41
2019-01-18T08:04:25.634Z,1013.40
2019-01-18T08:05:29.697Z,1013.39
2019-01-18T08:06:33.791Z,1013.37
2019-01-18T08:07:37.966Z,1013.35
2019-01-18T08:08:42.079Z,1013.27
2019-01-18T08:09:46.138Z,1013.27
2019-01-18T08:10:51.078Z,1013.26
2019-01-18T08:11:54.796Z,1013.29
2019-01-18T08:12:58.969Z,1013.30
2019-01-18T08:14:03.091Z,1013.33
2019-01-18T08:15:07.106Z,1013.34
2019-01-18T08:16:12.129Z,1013.42
2019-01-18T08:17:15.824Z,1013.53
2019-01-18T08:18:20.032Z,1013.58
2019-01-18T08:19:24.161Z,1013.53
2019-01-18T08:20:28.288Z,1013.44
2019-01-18T08:21:32.462Z,1013.48
2019-01-18T08:22:36.614Z,1013.53
2019-01-18T08:23:40.733Z,1013.56
2019-01-18T08:24:44.849Z,1013.59
2019-01-18T08:25:48.992Z,1013.61
2019-01-18T08:26:53.113Z,1013.62
2019-01-18T08:27:57.252Z,1013.62
2019-01-18T08:29:01.387Z,1013.64
2019-01-18T08:30:05.506Z,1013.65
2019-01-18T08:31:09.663Z,1013.67
2019-01-18T08:32:13.811Z,1013.68
2019-01-18T08:33:17.949Z,1013.71
2019-01-18T08:34:21.948Z,1013.73
2019-01-18T08:35:26.158Z,1013.74
2019-01-18T08:36:30.331Z,1013.80
2019-01-18T08:37:34.525Z,1013.82
2019-01-18T08:38:38.656Z,1013.81
2019-01-18T08:39:42.779Z,1013.82
2019-01-18T08:40:47.674Z,1013.82
2019-01-18T08:41:51.489Z,1013.86
2019-01-18T08:42:55.596Z,1013.88
2019-01-18T08:43:59.642Z,1013.89
2019-01-18T08:45:03.714Z,1013.85
2019-01-18T08:46:07.882Z,1013.82
2019-01-18T08:47:12.016Z,1013.80
2019-01-18T08:48:16.155Z,1013.79
2019-01-18T08:49:20.169Z,1013.79
2019-01-18T08:50:24.375Z,1013.78
2019-01-18T08:51:28.427Z,1013.77
2019-01-18T08:52:32.540Z,1013.76
2019-01-18T08:53:36.660Z,1013.79
2019-01-18T08:54:41.648Z,1013.83
2019-01-18T08:55:45.420Z,1013.89
2019-01-18T08:56:52.571Z,1013.90
2019-01-18T08:57:55.779Z,1013.92
2019-01-18T08:58:59.830Z,1013.92
2019-01-18T09:00:03.930Z,1013.97
2019-01-18T09:01:08.002Z,1014.00
2019-01-18T09:02:12.238Z,1013.96
2019-01-18T09:03:16.359Z,1013.99
2019-01-18T09:04:20.512Z,1013.99
2019-01-18T09:05:24.551Z,1014.01
2019-01-18T09:06:28.709Z,1014.01
2019-01-18T09:07:32.789Z,1013.98
2019-01-18T09:08:36.973Z,1013.99
2019-01-18T09:09:41.089Z,1013.97
2019-01-18T09:10:46.556Z,1013.96
2019-01-18T09:11:49.258Z,1013.98
2019-01-18T09:12:53.355Z,1014.00
2019-01-18T09:13:59.906Z,1014.05
2019-01-18T09:15:01.706Z,1014.03
2019-01-18T09:16:05.840Z,1014.04
2019-01-18T09:17:10.010Z,1014.10
2019-01-18T09:18:14.047Z,1014.12
2019-01-18T09:19:18.230Z,1014.18
2019-01-18T09:20:22.287Z,1014.17
2019-01-18T09:21:26.437Z,1014.20
2019-01-18T09:22:30.531Z,1014.21
2019-01-18T09:23:34.715Z,1014.22
2019-01-18T09:24:38.841Z,1014.23
2019-01-18T09:25:42.967Z,1014.21
2019-01-18T09:26:47.053Z,1014.26
2019-01-18T09:27:51.291Z,1014.28
2019-01-18T09:28:55.347Z,1014.26
2019-01-18T09:29:59.534Z,1014.27
2019-01-18T09:31:03.682Z,1014.29
2019-01-18T09:32:07.725Z,1014.26
2019-01-18T09:33:11.858Z,1014.25
2019-01-18T09:34:16.056Z,1014.26
2019-01-18T09:35:20.202Z,1014.22
2019-01-18T09:36:24.239Z,1014.27
2019-01-18T09:37:28.476Z,1014.27
2019-01-18T09:38:32.654Z,1014.26
2019-01-18T09:39:36.687Z,1014.27
2019-01-18T09:40:40.935Z,1014.26
2019-01-18T09:41:45.087Z,1014.27
2019-01-18T09:42:49.443Z,1014.29
2019-01-18T09:43:53.407Z,1014.31
2019-01-18T09:44:57.604Z,1014.33
2019-01-18T09:46:01.768Z,1014.32
2019-01-18T09:47:05.824Z,1014.31
2019-01-18T09:48:10.053Z,1014.35
2019-01-18T09:49:14.170Z,1014.35
2019-01-18T09:50:18.351Z,1014.38
2019-01-18T09:51:23.299Z,1014.39
2019-01-18T09:52:27.128Z,1014.41
2019-01-18T09:53:32.092Z,1014.41
2019-01-18T09:54:35.911Z,1014.43
2019-01-18T09:55:40.025Z,1014.43
2019-01-18T09:56:44.102Z,1014.42
2019-01-18T09:57:48.355Z,1014.40
2019-01-18T09:58:52.486Z,1014.39
2019-01-18T09:59:56.555Z,1014.39
2019-01-18T10:01:00.764Z,1014.40
2019-01-18T10:02:04.836Z,1014.42
2019-01-18T10:03:09.073Z,1014.45
2019-01-18T10:04:13.095Z,1014.43
2019-01-18T10:05:17.295Z,1014.43
2019-01-18T10:06:21.458Z,1014.43
2019-01-18T10:07:25.483Z,1014.42
2019-01-18T10:08:29.722Z,1014.44
2019-01-18T10:09:33.824Z,1014.42
2019-01-18T10:10:38.005Z,1014.43
2019-01-18T10:11:42.009Z,1014.45
2019-01-18T10:12:46.188Z,1014.47
2019-01-18T10:13:50.398Z,1014.48
2019-01-18T10:14:54.397Z,1014.47
2019-01-18T10:15:58.533Z,1014.50
2019-01-18T10:17:02.696Z,1014.48
2019-01-18T10:18:06.724Z,1014.48
2019-01-18T10:19:11.098Z,1014.50
2019-01-18T10:20:15.208Z,1014.49
2019-01-18T10:21:19.298Z,1014.50
2019-01-18T10:22:23.388Z,1014.50
2019-01-18T10:23:27.642Z,1014.53
2019-01-18T10:24:31.786Z,1014.48
2019-01-18T10:25:36.738Z,1014.52
2019-01-18T10:26:40.548Z,1014.51
2019-01-18T10:27:44.693Z,1014.54
2019-01-18T10:28:49.127Z,1014.55
2019-01-18T10:29:53.133Z,1014.53
2019-01-18T10:30:57.295Z,1014.51
2019-01-18T10:32:01.418Z,1014.53
2019-01-18T10:33:05.499Z,1014.53
2019-01-18T10:34:09.664Z,1014.53
2019-01-18T10:35:13.745Z,1014.54
2019-01-18T10:36:17.972Z,1014.52
2019-01-18T10:37:22.105Z,1014.53
2019-01-18T10:38:26.279Z,1014.54
2019-01-18T10:39:30.458Z,1014.54
2019-01-18T10:40:34.473Z,1014.56
2019-01-18T10:41:38.666Z,1014.54
2019-01-18T10:42:42.844Z,1014.55
2019-01-18T10:43:47.031Z,1014.51
2019-01-18T10:44:51.183Z,1014.50
2019-01-18T10:45:55.207Z,1014.49
2019-01-18T10:46:59.435Z,1014.49
2019-01-18T10:48:03.902Z,1014.51
2019-01-18T10:49:07.733Z,1014.47
2019-01-18T10:50:11.862Z,1014.47
2019-01-18T10:51:16.108Z,1014.48
2019-01-18T10:52:20.272Z,1014.46
2019-01-18T10:53:24.407Z,1014.46
2019-01-18T10:54:28.542Z,1014.49
2019-01-18T10:55:32.586Z,1014.48
2019-01-18T10:56:36.706Z,1014.51
2019-01-18T10:57:40.930Z,1014.47
2019-01-18T10:58:45.086Z,1014.49
2019-01-18T10:59:49.149Z,1014.49
2019-01-18T11:00:53.376Z,1014.48
2019-01-18T11:02:03.396Z,1014.48
2019-01-18T11:03:01.707Z,1014.50
2019-01-18T11:04:05.871Z,1014.50
2019-01-18T11:05:10.023Z,1014.50
2019-01-18T11:06:14.193Z,1014.51
2019-01-18T11:07:18.326Z,1014.49
2019-01-18T11:08:22.482Z,1014.49
2019-01-18T11:09:26.659Z,1014.50
2019-01-18T11:10:30.798Z,1014.52
2019-01-18T11:11:34.956Z,1014.51
2019-01-18T11:12:38.937Z,1014.50
2019-01-18T11:13:43.205Z,1014.52
2019-01-18T11:14:47.289Z,1014.50
2019-01-18T11:15:51.496Z,1014.50
2019-01-18T11:16:55.709Z,1014.47
2019-01-18T11:17:59.859Z,1014.47
2019-01-18T11:19:03.944Z,1014.48
2019-01-18T11:20:08.200Z,1014.44
2019-01-18T11:21:12.283Z,1014.45
2019-01-18T11:22:16.556Z,1014.44
2019-01-18T11:23:20.633Z,1014.43
2019-01-18T11:24:24.786Z,1014.43
2019-01-18T11:25:32.033Z,1014.44
2019-01-18T11:26:33.130Z,1014.44
2019-01-18T11:27:37.353Z,1014.44
2019-01-18T11:28:41.362Z,1014.44
2019-01-18T11:29:45.572Z,1014.44
2019-01-18T11:30:49.677Z,1014.45
2019-01-18T11:31:53.941Z,1014.46
2019-01-18T11:32:58.085Z,1014.46
2019-01-18T11:34:02.257Z,1014.49
2019-01-18T11:35:06.444Z,1014.49
2019-01-18T11:36:10.495Z,1014.47
2019-01-18T11:37:14.737Z,1014.45
2019-01-18T11:38:18.747Z,1014.47
2019-01-18T11:39:22.922Z,1014.46
2019-01-18T11:40:27.076Z,1014.42
2019-01-18T11:41:31.285Z,1014.45
2019-01-18T11:42:35.362Z,1014.45
2019-01-18T11:43:39.607Z,1014.47
2019-01-18T11:44:43.776Z,1014.47
2019-01-18T11:45:47.944Z,1014.46
2019-01-18T11:46:52.124Z,1014.49
2019-01-18T11:47:56.249Z,1014.46
2019-01-18T11:49:00.412Z,1014.46
2019-01-18T11:50:04.575Z,1014.45
2019-01-18T11:51:08.566Z,1014.45
2019-01-18T11:52:12.854Z,1014.47
2019-01-18T11:53:17.039Z,1014.47
2019-01-18T11:54:21.121Z,1014.42
2019-01-18T11:55:25.159Z,1014.40
2019-01-18T11:56:29.399Z,1014.42
2019-01-18T11:57:33.480Z,1014.42
2019-01-18T11:58:37.636Z,1014.44
2019-01-18T11:59:41.833Z,1014.43
2019-01-18T12:00:45.927Z,1014.46
2019-01-18T12:01:50.155Z,1014.46
2019-01-18T12:02:54.236Z,1014.45
2019-01-18T12:03:58.475Z,1014.45
2019-01-18T12:05:02.657Z,1014.44
2019-01-18T12:06:06.826Z,1014.44
2019-01-18T12:07:11.015Z,1014.45
2019-01-18T12:08:15.156Z,1014.46
2019-01-18T12:09:19.432Z,1014.46
2019-01-18T12:10:23.470Z,1014.46
2019-01-18T12:11:27.643Z,1014.44
2019-01-18T12:12:31.865Z,1014.46
2019-01-18T12:13:36.079Z,1014.45
2019-01-18T12:14:40.217Z,1014.43
2019-01-18T12:15:44.410Z,1014.43
2019-01-18T12:16:48.620Z,1014.42
2019-01-18T12:17:52.683Z,1014.39
2019-01-18T12:18:56.944Z,1014.39
2019-01-18T12:20:01.122Z,1014.39
2019-01-18T12:21:08.259Z,1014.42
2019-01-18T12:22:11.447Z,1014.39
2019-01-18T12:23:15.627Z,1014.42
2019-01-18T12:24:19.719Z,1014.40
2019-01-18T12:25:23.918Z,1014.39
2019-01-18T12:26:27.997Z,1014.40
2019-01-18T12:27:32.213Z,1014.41
2019-01-18T12:28:36.376Z,1014.42
2019-01-18T12:29:40.468Z,1014.39
2019-01-18T12:30:44.659Z,1014.41
2019-01-18T12:31:48.864Z,1014.40
2019-01-18T12:32:52.931Z,1014.41
2019-01-18T12:33:57.219Z,1014.39
2019-01-18T12:35:01.375Z,1014.38
2019-01-18T12:36:05.557Z,1014.40
2019-01-18T12:37:09.733Z,1014.40
2019-01-18T12:38:13.828Z,1014.39
2019-01-18T12:39:18.114Z,1014.39
2019-01-18T12:40:22.157Z,1014.41
2019-01-18T12:41:26.357Z,1014.41
2019-01-18T12:42:30.498Z,1014.41
2019-01-18T12:43:34.656Z,1014.41
2019-01-18T12:44:38.849Z,1014.41
2019-01-18T12:45:42.935Z,1014.38
2019-01-18T12:46:47.073Z,1014.37
2019-01-18T12:47:51.297Z,1014.37
2019-01-18T12:48:55.457Z,1014.36
2019-01-18T12:49:59.681Z,1014.34
2019-01-18T12:51:03.874Z,1014.34
2019-01-18T12:52:08.091Z,1014.32
2019-01-18T12:53:12.292Z,1014.35
2019-01-18T12:54:16.493Z,1014.35
2019-01-18T12:55:20.667Z,1014.35